sensor_id;sensor_type;location;lat;lon;timestamp;P1;durP1;ratioP1;P2;durP2;ratioP2
38455;SDS011;24237;50.106;20.014;2023-06-01T00:01:58;22.83;;;5.88;;
38455;SDS011;24237;50.106;20.014;2023-06-01T00:04:23;25.02;;;6.22;;
38455;SDS011;24237;50.106;20.014;2023-06-01T00:06:49;15.70;;;5.10;;
38455;SDS011;24237;50.106;20.014;2023-06-01T00:09:15;13.82;;;4.75;;
38455;SDS011;24237;50.106;20.014;2023-06-01T00:11:40;11.60;;;4.78;;
38455;SDS011;24237;50.106;20.014;2023-06-01T00:14:06;14.48;;;5.75;;
38455;SDS011;24237;50.106;20.014;2023-06-01T00:16:32;16.85;;;4.80;;
38455;SDS011;24237;50.106;20.014;2023-06-01T00:18:58;16.55;;;5.78;;
38455;SDS011;24237;50.106;20.014;2023-06-01T00:21:28;15.27;;;5.28;;
38455;SDS011;24237;50.106;20.014;2023-06-01T00:23:57;12.50;;;5.20;;
38455;SDS011;24237;50.106;20.014;2023-06-01T00:26:22;26.63;;;5.35;;
38455;SDS011;24237;50.106;20.014;2023-06-01T00:28:48;24.13;;;5.97;;
38455;SDS011;24237;50.106;20.014;2023-06-01T00:31:14;21.40;;;5.55;;
38455;SDS011;24237;50.106;20.014;2023-06-01T00:33:40;11.90;;;4.13;;
38455;SDS011;24237;50.106;20.014;2023-06-01T00:36:06;15.52;;;4.70;;
38455;SDS011;24237;50.106;20.014;2023-06-01T00:38:31;11.63;;;4.60;;
38455;SDS011;24237;50.106;20.014;2023-06-01T00:40:57;16.75;;;5.22;;
38455;SDS011;24237;50.106;20.014;2023-06-01T00:43:23;14.55;;;4.50;;
38455;SDS011;24237;50.106;20.014;2023-06-01T00:45:48;17.63;;;5.00;;
38455;SDS011;24237;50.106;20.014;2023-06-01T00:48:15;15.70;;;4.43;;
38455;SDS011;24237;50.106;20.014;2023-06-01T00:50:42;20.27;;;5.22;;
38455;SDS011;24237;50.106;20.014;2023-06-01T00:53:11;18.17;;;4.22;;
38455;SDS011;24237;50.106;20.014;2023-06-01T00:55:41;11.75;;;4.60;;
38455;SDS011;24237;50.106;20.014;2023-06-01T00:58:07;11.27;;;4.78;;
38455;SDS011;24237;50.106;20.014;2023-06-01T01:00:33;18.20;;;4.43;;
38455;SDS011;24237;50.106;20.014;2023-06-01T01:02:59;12.38;;;4.18;;
38455;SDS011;24237;50.106;20.014;2023-06-01T01:05:32;12.73;;;4.75;;
38455;SDS011;24237;50.106;20.014;2023-06-01T01:08:00;12.48;;;4.75;;
38455;SDS011;24237;50.106;20.014;2023-06-01T01:10:41;10.15;;;4.20;;
38455;SDS011;24237;50.106;20.014;2023-06-01T01:13:41;14.02;;;4.53;;
38455;SDS011;24237;50.106;20.014;2023-06-01T01:16:16;13.55;;;4.38;;
38455;SDS011;24237;50.106;20.014;2023-06-01T01:18:50;10.38;;;4.00;;
38455;SDS011;24237;50.106;20.014;2023-06-01T01:21:20;12.05;;;3.97;;
38455;SDS011;24237;50.106;20.014;2023-06-01T01:29:24;9.48;;;3.92;;
38455;SDS011;24237;50.106;20.014;2023-06-01T01:31:53;12.02;;;4.53;;
38455;SDS011;24237;50.106;20.014;2023-06-01T01:34:21;13.98;;;5.13;;
38455;SDS011;24237;50.106;20.014;2023-06-01T01:36:48;12.10;;;4.15;;
38455;SDS011;24237;50.106;20.014;2023-06-01T01:39:13;11.35;;;4.15;;
38455;SDS011;24237;50.106;20.014;2023-06-01T01:41:39;12.05;;;4.72;;
38455;SDS011;24237;50.106;20.014;2023-06-01T01:44:05;10.18;;;4.55;;
38455;SDS011;24237;50.106;20.014;2023-06-01T01:46:41;15.93;;;5.10;;
38455;SDS011;24237;50.106;20.014;2023-06-01T01:49:15;8.45;;;4.13;;
38455;SDS011;24237;50.106;20.014;2023-06-01T01:54:37;10.25;;;3.72;;
38455;SDS011;24237;50.106;20.014;2023-06-01T01:57:07;8.73;;;3.72;;
38455;SDS011;24237;50.106;20.014;2023-06-01T01:59:33;10.30;;;4.47;;
38455;SDS011;24237;50.106;20.014;2023-06-01T02:02:00;13.43;;;4.40;;
38455;SDS011;24237;50.106;20.014;2023-06-01T02:04:25;14.90;;;4.93;;
38455;SDS011;24237;50.106;20.014;2023-06-01T02:06:51;13.07;;;5.05;;
38455;SDS011;24237;50.106;20.014;2023-06-01T02:09:17;9.68;;;5.07;;
38455;SDS011;24237;50.106;20.014;2023-06-01T02:11:43;12.20;;;4.60;;
38455;SDS011;24237;50.106;20.014;2023-06-01T02:14:08;11.82;;;5.55;;
38455;SDS011;24237;50.106;20.014;2023-06-01T02:16:34;13.32;;;4.78;;
38455;SDS011;24237;50.106;20.014;2023-06-01T02:19:00;11.00;;;4.78;;
38455;SDS011;24237;50.106;20.014;2023-06-01T02:21:27;12.63;;;5.22;;
38455;SDS011;24237;50.106;20.014;2023-06-01T02:23:53;15.23;;;5.10;;
38455;SDS011;24237;50.106;20.014;2023-06-01T02:26:18;14.45;;;4.80;;
38455;SDS011;24237;50.106;20.014;2023-06-01T02:28:44;12.57;;;5.07;;
38455;SDS011;24237;50.106;20.014;2023-06-01T02:31:10;11.38;;;4.72;;
38455;SDS011;24237;50.106;20.014;2023-06-01T02:33:37;16.40;;;5.18;;
38455;SDS011;24237;50.106;20.014;2023-06-01T02:36:03;13.90;;;5.18;;
38455;SDS011;24237;50.106;20.014;2023-06-01T02:38:30;11.38;;;4.72;;
38455;SDS011;24237;50.106;20.014;2023-06-01T02:40:55;18.10;;;5.13;;
38455;SDS011;24237;50.106;20.014;2023-06-01T02:43:21;19.55;;;5.45;;
38455;SDS011;24237;50.106;20.014;2023-06-01T02:45:47;21.80;;;5.88;;
38455;SDS011;24237;50.106;20.014;2023-06-01T02:48:12;14.63;;;5.07;;
38455;SDS011;24237;50.106;20.014;2023-06-01T02:50:38;9.80;;;5.10;;
38455;SDS011;24237;50.106;20.014;2023-06-01T02:53:03;12.93;;;5.00;;
38455;SDS011;24237;50.106;20.014;2023-06-01T02:55:30;17.55;;;7.10;;
38455;SDS011;24237;50.106;20.014;2023-06-01T02:57:55;17.42;;;6.35;;
38455;SDS011;24237;50.106;20.014;2023-06-01T03:00:21;18.27;;;5.28;;
38455;SDS011;24237;50.106;20.014;2023-06-01T03:02:47;15.52;;;5.63;;
38455;SDS011;24237;50.106;20.014;2023-06-01T03:05:14;21.60;;;6.05;;
38455;SDS011;24237;50.106;20.014;2023-06-01T03:07:40;15.93;;;5.10;;
38455;SDS011;24237;50.106;20.014;2023-06-01T03:10:07;16.48;;;5.30;;
38455;SDS011;24237;50.106;20.014;2023-06-01T03:12:33;16.55;;;5.72;;
38455;SDS011;24237;50.106;20.014;2023-06-01T03:14:59;20.07;;;5.93;;
38455;SDS011;24237;50.106;20.014;2023-06-01T03:17:25;16.73;;;5.18;;
38455;SDS011;24237;50.106;20.014;2023-06-01T03:19:51;16.90;;;5.78;;
38455;SDS011;24237;50.106;20.014;2023-06-01T03:22:17;23.38;;;6.32;;
38455;SDS011;24237;50.106;20.014;2023-06-01T03:24:42;14.88;;;5.78;;
38455;SDS011;24237;50.106;20.014;2023-06-01T03:27:09;17.13;;;5.75;;
38455;SDS011;24237;50.106;20.014;2023-06-01T03:29:36;15.95;;;6.32;;
38455;SDS011;24237;50.106;20.014;2023-06-01T03:32:01;18.10;;;6.97;;
38455;SDS011;24237;50.106;20.014;2023-06-01T03:34:27;17.85;;;6.93;;
38455;SDS011;24237;50.106;20.014;2023-06-01T03:36:54;18.42;;;7.05;;
38455;SDS011;24237;50.106;20.014;2023-06-01T03:39:20;22.70;;;7.10;;
38455;SDS011;24237;50.106;20.014;2023-06-01T03:41:45;17.70;;;6.53;;
38455;SDS011;24237;50.106;20.014;2023-06-01T03:44:11;22.65;;;7.70;;
38455;SDS011;24237;50.106;20.014;2023-06-01T03:46:37;18.48;;;6.38;;
38455;SDS011;24237;50.106;20.014;2023-06-01T03:49:03;18.87;;;6.57;;
38455;SDS011;24237;50.106;20.014;2023-06-01T03:51:29;19.48;;;6.00;;
38455;SDS011;24237;50.106;20.014;2023-06-01T03:53:55;20.63;;;5.88;;
38455;SDS011;24237;50.106;20.014;2023-06-01T03:56:21;23.80;;;6.53;;
38455;SDS011;24237;50.106;20.014;2023-06-01T03:58:47;14.40;;;5.75;;
38455;SDS011;24237;50.106;20.014;2023-06-01T04:01:13;20.45;;;6.93;;
38455;SDS011;24237;50.106;20.014;2023-06-01T04:03:42;17.65;;;5.78;;
38455;SDS011;24237;50.106;20.014;2023-06-01T04:06:08;19.95;;;5.95;;
38455;SDS011;24237;50.106;20.014;2023-06-01T04:08:37;16.60;;;5.82;;
38455;SDS011;24237;50.106;20.014;2023-06-01T04:11:12;17.00;;;5.95;;
38455;SDS011;24237;50.106;20.014;2023-06-01T04:13:38;23.42;;;5.45;;
38455;SDS011;24237;50.106;20.014;2023-06-01T04:16:04;18.77;;;5.80;;
38455;SDS011;24237;50.106;20.014;2023-06-01T04:18:30;26.20;;;8.77;;
38455;SDS011;24237;50.106;20.014;2023-06-01T04:20:55;15.88;;;6.65;;
38455;SDS011;24237;50.106;20.014;2023-06-01T04:23:21;23.70;;;7.22;;
38455;SDS011;24237;50.106;20.014;2023-06-01T04:25:47;20.77;;;7.13;;
38455;SDS011;24237;50.106;20.014;2023-06-01T04:28:15;22.23;;;8.05;;
38455;SDS011;24237;50.106;20.014;2023-06-01T04:30:42;18.92;;;8.48;;
38455;SDS011;24237;50.106;20.014;2023-06-01T04:33:09;22.55;;;8.43;;
38455;SDS011;24237;50.106;20.014;2023-06-01T04:35:35;25.75;;;10.75;;
38455;SDS011;24237;50.106;20.014;2023-06-01T04:38:02;30.02;;;11.18;;
38455;SDS011;24237;50.106;20.014;2023-06-01T04:40:27;24.33;;;9.65;;
38455;SDS011;24237;50.106;20.014;2023-06-01T04:42:53;26.25;;;10.60;;
38455;SDS011;24237;50.106;20.014;2023-06-01T04:45:25;33.25;;;11.50;;
38455;SDS011;24237;50.106;20.014;2023-06-01T04:47:51;25.77;;;10.55;;
38455;SDS011;24237;50.106;20.014;2023-06-01T04:50:16;20.58;;;10.65;;
38455;SDS011;24237;50.106;20.014;2023-06-01T04:52:43;31.52;;;10.25;;
38455;SDS011;24237;50.106;20.014;2023-06-01T04:55:09;31.57;;;9.23;;
38455;SDS011;24237;50.106;20.014;2023-06-01T04:57:38;26.17;;;10.65;;
38455;SDS011;24237;50.106;20.014;2023-06-01T05:00:05;18.27;;;9.85;;
38455;SDS011;24237;50.106;20.014;2023-06-01T05:02:38;29.88;;;9.50;;
38455;SDS011;24237;50.106;20.014;2023-06-01T05:05:05;32.53;;;10.57;;
38455;SDS011;24237;50.106;20.014;2023-06-01T05:07:31;23.30;;;10.27;;
38455;SDS011;24237;50.106;20.014;2023-06-01T05:09:57;19.63;;;9.15;;
38455;SDS011;24237;50.106;20.014;2023-06-01T05:12:23;19.63;;;9.30;;
38455;SDS011;24237;50.106;20.014;2023-06-01T05:14:49;21.83;;;8.88;;
38455;SDS011;24237;50.106;20.014;2023-06-01T05:17:15;22.02;;;8.15;;
38455;SDS011;24237;50.106;20.014;2023-06-01T05:19:41;24.93;;;9.03;;
38455;SDS011;24237;50.106;20.014;2023-06-01T05:22:07;23.73;;;9.15;;
38455;SDS011;24237;50.106;20.014;2023-06-01T05:24:32;31.42;;;8.55;;
38455;SDS011;24237;50.106;20.014;2023-06-01T05:26:58;21.45;;;8.25;;
38455;SDS011;24237;50.106;20.014;2023-06-01T05:29:24;24.00;;;8.85;;
38455;SDS011;24237;50.106;20.014;2023-06-01T05:31:49;23.95;;;7.88;;
38455;SDS011;24237;50.106;20.014;2023-06-01T05:34:15;16.25;;;7.55;;
38455;SDS011;24237;50.106;20.014;2023-06-01T05:36:41;19.50;;;7.65;;
38455;SDS011;24237;50.106;20.014;2023-06-01T05:39:06;23.00;;;9.35;;
38455;SDS011;24237;50.106;20.014;2023-06-01T05:41:32;20.85;;;7.53;;
38455;SDS011;24237;50.106;20.014;2023-06-01T05:43:58;29.05;;;9.45;;
38455;SDS011;24237;50.106;20.014;2023-06-01T05:46:23;23.38;;;8.90;;
38455;SDS011;24237;50.106;20.014;2023-06-01T05:48:49;29.45;;;9.48;;
38455;SDS011;24237;50.106;20.014;2023-06-01T05:51:16;28.55;;;9.18;;
38455;SDS011;24237;50.106;20.014;2023-06-01T05:53:42;21.30;;;7.78;;
38455;SDS011;24237;50.106;20.014;2023-06-01T05:56:08;22.85;;;7.78;;
38455;SDS011;24237;50.106;20.014;2023-06-01T05:58:33;19.15;;;8.45;;
38455;SDS011;24237;50.106;20.014;2023-06-01T06:00:59;20.27;;;7.55;;
38455;SDS011;24237;50.106;20.014;2023-06-01T06:03:25;26.50;;;8.32;;
38455;SDS011;24237;50.106;20.014;2023-06-01T06:05:51;25.60;;;7.85;;
38455;SDS011;24237;50.106;20.014;2023-06-01T06:08:17;17.67;;;7.80;;
38455;SDS011;24237;50.106;20.014;2023-06-01T06:10:42;27.48;;;8.60;;
38455;SDS011;24237;50.106;20.014;2023-06-01T06:13:08;14.57;;;7.20;;
38455;SDS011;24237;50.106;20.014;2023-06-01T06:15:34;22.65;;;7.90;;
38455;SDS011;24237;50.106;20.014;2023-06-01T06:18:00;20.80;;;7.63;;
38455;SDS011;24237;50.106;20.014;2023-06-01T06:20:25;20.40;;;7.35;;
38455;SDS011;24237;50.106;20.014;2023-06-01T06:22:51;22.00;;;7.88;;
38455;SDS011;24237;50.106;20.014;2023-06-01T06:25:18;25.00;;;8.15;;
38455;SDS011;24237;50.106;20.014;2023-06-01T06:27:44;16.85;;;7.22;;
38455;SDS011;24237;50.106;20.014;2023-06-01T06:30:10;19.30;;;7.45;;
38455;SDS011;24237;50.106;20.014;2023-06-01T06:32:36;19.55;;;7.22;;
38455;SDS011;24237;50.106;20.014;2023-06-01T06:35:02;33.20;;;8.45;;
38455;SDS011;24237;50.106;20.014;2023-06-01T06:37:28;21.10;;;6.95;;
38455;SDS011;24237;50.106;20.014;2023-06-01T06:39:54;21.48;;;8.15;;
38455;SDS011;24237;50.106;20.014;2023-06-01T06:42:20;18.98;;;7.82;;
38455;SDS011;24237;50.106;20.014;2023-06-01T06:44:46;19.80;;;7.43;;
38455;SDS011;24237;50.106;20.014;2023-06-01T06:47:12;20.38;;;7.03;;
38455;SDS011;24237;50.106;20.014;2023-06-01T06:49:40;19.10;;;7.38;;
38455;SDS011;24237;50.106;20.014;2023-06-01T06:52:08;30.70;;;8.43;;
38455;SDS011;24237;50.106;20.014;2023-06-01T06:54:34;30.38;;;13.10;;
38455;SDS011;24237;50.106;20.014;2023-06-01T06:57:00;16.08;;;6.63;;
38455;SDS011;24237;50.106;20.014;2023-06-01T07:01:53;21.80;;;7.20;;
38455;SDS011;24237;50.106;20.014;2023-06-01T07:04:19;13.73;;;6.03;;
38455;SDS011;24237;50.106;20.014;2023-06-01T07:06:45;20.55;;;6.35;;
38455;SDS011;24237;50.106;20.014;2023-06-01T07:09:11;20.40;;;6.75;;
38455;SDS011;24237;50.106;20.014;2023-06-01T07:11:36;23.02;;;6.95;;
38455;SDS011;24237;50.106;20.014;2023-06-01T07:14:02;21.02;;;6.00;;
38455;SDS011;24237;50.106;20.014;2023-06-01T07:16:27;20.63;;;6.47;;
38455;SDS011;24237;50.106;20.014;2023-06-01T07:18:54;17.43;;;6.07;;
38455;SDS011;24237;50.106;20.014;2023-06-01T07:21:21;20.48;;;6.30;;
38455;SDS011;24237;50.106;20.014;2023-06-01T07:23:47;18.08;;;5.95;;
38455;SDS011;24237;50.106;20.014;2023-06-01T07:26:12;25.85;;;6.63;;
38455;SDS011;24237;50.106;20.014;2023-06-01T07:28:38;19.98;;;5.80;;
38455;SDS011;24237;50.106;20.014;2023-06-01T07:31:05;18.37;;;6.10;;
38455;SDS011;24237;50.106;20.014;2023-06-01T07:33:31;32.47;;;7.43;;
38455;SDS011;24237;50.106;20.014;2023-06-01T07:36:18;20.20;;;6.90;;
38455;SDS011;24237;50.106;20.014;2023-06-01T07:38:45;22.35;;;6.60;;
38455;SDS011;24237;50.106;20.014;2023-06-01T07:41:10;15.32;;;5.95;;
38455;SDS011;24237;50.106;20.014;2023-06-01T07:43:36;15.15;;;6.18;;
38455;SDS011;24237;50.106;20.014;2023-06-01T07:46:03;20.67;;;4.83;;
38455;SDS011;24237;50.106;20.014;2023-06-01T07:48:29;11.07;;;4.47;;
38455;SDS011;24237;50.106;20.014;2023-06-01T07:51:00;17.08;;;4.75;;
38455;SDS011;24237;50.106;20.014;2023-06-01T07:53:31;9.43;;;4.28;;
38455;SDS011;24237;50.106;20.014;2023-06-01T07:55:56;13.05;;;5.28;;
38455;SDS011;24237;50.106;20.014;2023-06-01T07:58:22;12.88;;;5.72;;
38455;SDS011;24237;50.106;20.014;2023-06-01T08:00:51;16.65;;;4.75;;
38455;SDS011;24237;50.106;20.014;2023-06-01T08:03:17;16.17;;;4.60;;
38455;SDS011;24237;50.106;20.014;2023-06-01T08:05:45;17.08;;;4.13;;
38455;SDS011;24237;50.106;20.014;2023-06-01T08:08:31;11.57;;;4.82;;
38455;SDS011;24237;50.106;20.014;2023-06-01T08:10:57;7.07;;;4.00;;
38455;SDS011;24237;50.106;20.014;2023-06-01T08:13:23;14.45;;;5.10;;
38455;SDS011;24237;50.106;20.014;2023-06-01T08:18:17;13.57;;;4.55;;
38455;SDS011;24237;50.106;20.014;2023-06-01T08:20:44;11.38;;;3.88;;
38455;SDS011;24237;50.106;20.014;2023-06-01T08:23:10;8.00;;;2.85;;
38455;SDS011;24237;50.106;20.014;2023-06-01T08:25:36;18.55;;;4.22;;
38455;SDS011;24237;50.106;20.014;2023-06-01T08:28:02;8.10;;;3.30;;
38455;SDS011;24237;50.106;20.014;2023-06-01T08:30:28;9.57;;;3.15;;
38455;SDS011;24237;50.106;20.014;2023-06-01T08:32:54;9.60;;;3.72;;
38455;SDS011;24237;50.106;20.014;2023-06-01T08:35:20;9.85;;;3.45;;
38455;SDS011;24237;50.106;20.014;2023-06-01T08:37:46;7.63;;;3.25;;
38455;SDS011;24237;50.106;20.014;2023-06-01T08:40:13;11.75;;;3.33;;
38455;SDS011;24237;50.106;20.014;2023-06-01T08:42:42;7.45;;;3.00;;
38455;SDS011;24237;50.106;20.014;2023-06-01T08:45:17;11.48;;;3.75;;
38455;SDS011;24237;50.106;20.014;2023-06-01T08:47:44;19.92;;;3.38;;
38455;SDS011;24237;50.106;20.014;2023-06-01T08:50:11;19.52;;;9.98;;
38455;SDS011;24237;50.106;20.014;2023-06-01T08:52:38;17.05;;;3.20;;
38455;SDS011;24237;50.106;20.014;2023-06-01T08:55:04;7.70;;;3.13;;
38455;SDS011;24237;50.106;20.014;2023-06-01T08:57:30;15.38;;;3.03;;
38455;SDS011;24237;50.106;20.014;2023-06-01T08:59:56;11.23;;;3.15;;
38455;SDS011;24237;50.106;20.014;2023-06-01T09:04:50;8.75;;;2.88;;
38455;SDS011;24237;50.106;20.014;2023-06-01T09:07:16;10.15;;;3.10;;
38455;SDS011;24237;50.106;20.014;2023-06-01T09:10:01;8.75;;;3.25;;
38455;SDS011;24237;50.106;20.014;2023-06-01T09:12:28;8.10;;;2.97;;
38455;SDS011;24237;50.106;20.014;2023-06-01T09:17:43;4.82;;;2.75;;
38455;SDS011;24237;50.106;20.014;2023-06-01T09:20:13;10.57;;;3.30;;
38455;SDS011;24237;50.106;20.014;2023-06-01T09:22:46;10.82;;;3.60;;
38455;SDS011;24237;50.106;20.014;2023-06-01T09:25:12;8.65;;;3.33;;
38455;SDS011;24237;50.106;20.014;2023-06-01T09:28:00;14.40;;;3.75;;
38455;SDS011;24237;50.106;20.014;2023-06-01T09:30:37;8.32;;;3.53;;
38455;SDS011;24237;50.106;20.014;2023-06-01T09:33:10;11.80;;;4.00;;
38455;SDS011;24237;50.106;20.014;2023-06-01T09:38:07;7.60;;;3.20;;
38455;SDS011;24237;50.106;20.014;2023-06-01T09:40:36;13.23;;;3.78;;
38455;SDS011;24237;50.106;20.014;2023-06-01T09:43:20;9.70;;;3.22;;
38455;SDS011;24237;50.106;20.014;2023-06-01T09:45:59;6.80;;;3.15;;
38455;SDS011;24237;50.106;20.014;2023-06-01T09:48:28;12.68;;;3.50;;
38455;SDS011;24237;50.106;20.014;2023-06-01T09:50:54;7.28;;;3.40;;
38455;SDS011;24237;50.106;20.014;2023-06-01T09:53:20;10.48;;;3.60;;
38455;SDS011;24237;50.106;20.014;2023-06-01T09:55:58;13.95;;;4.55;;
38455;SDS011;24237;50.106;20.014;2023-06-01T09:58:25;12.02;;;3.38;;
38455;SDS011;24237;50.106;20.014;2023-06-01T10:00:51;10.05;;;3.75;;
38455;SDS011;24237;50.106;20.014;2023-06-01T10:03:17;17.13;;;4.10;;
38455;SDS011;24237;50.106;20.014;2023-06-01T10:05:44;16.70;;;3.60;;
38455;SDS011;24237;50.106;20.014;2023-06-01T10:08:11;16.10;;;3.78;;
38455;SDS011;24237;50.106;20.014;2023-06-01T10:10:39;11.57;;;3.45;;
38455;SDS011;24237;50.106;20.014;2023-06-01T10:13:07;14.23;;;3.63;;
38455;SDS011;24237;50.106;20.014;2023-06-01T10:15:33;9.48;;;3.97;;
38455;SDS011;24237;50.106;20.014;2023-06-01T10:17:59;11.00;;;3.90;;
38455;SDS011;24237;50.106;20.014;2023-06-01T10:20:27;15.15;;;3.58;;
38455;SDS011;24237;50.106;20.014;2023-06-01T10:22:52;20.10;;;10.95;;
38455;SDS011;24237;50.106;20.014;2023-06-01T10:25:18;15.90;;;4.18;;
38455;SDS011;24237;50.106;20.014;2023-06-01T10:27:52;12.45;;;3.40;;
38455;SDS011;24237;50.106;20.014;2023-06-01T10:30:22;12.95;;;3.60;;
38455;SDS011;24237;50.106;20.014;2023-06-01T10:32:48;11.02;;;3.00;;
38455;SDS011;24237;50.106;20.014;2023-06-01T10:40:41;8.75;;;3.55;;
38455;SDS011;24237;50.106;20.014;2023-06-01T10:46:01;12.82;;;3.70;;
38455;SDS011;24237;50.106;20.014;2023-06-01T10:51:17;12.88;;;3.42;;
38455;SDS011;24237;50.106;20.014;2023-06-01T10:53:44;9.75;;;3.63;;
38455;SDS011;24237;50.106;20.014;2023-06-01T10:58:47;9.48;;;3.42;;
38455;SDS011;24237;50.106;20.014;2023-06-01T11:01:40;7.93;;;3.40;;
38455;SDS011;24237;50.106;20.014;2023-06-01T11:04:07;12.68;;;3.53;;
38455;SDS011;24237;50.106;20.014;2023-06-01T11:06:36;8.88;;;3.33;;
38455;SDS011;24237;50.106;20.014;2023-06-01T11:09:08;9.85;;;3.35;;
38455;SDS011;24237;50.106;20.014;2023-06-01T11:14:29;8.43;;;3.90;;
38455;SDS011;24237;50.106;20.014;2023-06-01T11:17:24;14.95;;;4.00;;
38455;SDS011;24237;50.106;20.014;2023-06-01T11:19:57;8.25;;;2.83;;
38455;SDS011;24237;50.106;20.014;2023-06-01T11:22:24;13.10;;;3.92;;
38455;SDS011;24237;50.106;20.014;2023-06-01T11:24:51;14.25;;;3.58;;
38455;SDS011;24237;50.106;20.014;2023-06-01T11:27:19;10.48;;;3.40;;
38455;SDS011;24237;50.106;20.014;2023-06-01T11:29:48;8.85;;;3.38;;
38455;SDS011;24237;50.106;20.014;2023-06-01T11:32:14;13.68;;;3.10;;
38455;SDS011;24237;50.106;20.014;2023-06-01T11:34:40;9.48;;;4.85;;
38455;SDS011;24237;50.106;20.014;2023-06-01T11:37:12;18.25;;;3.50;;
38455;SDS011;24237;50.106;20.014;2023-06-01T11:39:39;11.90;;;3.30;;
38455;SDS011;24237;50.106;20.014;2023-06-01T11:42:06;6.63;;;3.00;;
38455;SDS011;24237;50.106;20.014;2023-06-01T11:44:32;11.35;;;3.17;;
38455;SDS011;24237;50.106;20.014;2023-06-01T11:46:59;11.85;;;4.22;;
38455;SDS011;24237;50.106;20.014;2023-06-01T11:49:25;8.85;;;3.40;;
38455;SDS011;24237;50.106;20.014;2023-06-01T11:51:52;7.93;;;3.33;;
38455;SDS011;24237;50.106;20.014;2023-06-01T11:54:25;8.00;;;3.05;;
38455;SDS011;24237;50.106;20.014;2023-06-01T11:56:53;10.23;;;3.63;;
38455;SDS011;24237;50.106;20.014;2023-06-01T11:59:20;5.97;;;3.20;;
38455;SDS011;24237;50.106;20.014;2023-06-01T12:01:46;9.37;;;3.30;;
38455;SDS011;24237;50.106;20.014;2023-06-01T12:04:16;11.82;;;3.85;;
38455;SDS011;24237;50.106;20.014;2023-06-01T12:06:44;15.90;;;4.13;;
38455;SDS011;24237;50.106;20.014;2023-06-01T12:09:10;14.15;;;4.22;;
38455;SDS011;24237;50.106;20.014;2023-06-01T12:11:38;10.10;;;3.10;;
38455;SDS011;24237;50.106;20.014;2023-06-01T12:14:04;10.25;;;3.30;;
38455;SDS011;24237;50.106;20.014;2023-06-01T12:19:19;7.88;;;2.70;;
38455;SDS011;24237;50.106;20.014;2023-06-01T12:21:51;18.03;;;3.60;;
38455;SDS011;24237;50.106;20.014;2023-06-01T12:24:25;9.80;;;3.00;;
38455;SDS011;24237;50.106;20.014;2023-06-01T12:26:54;8.27;;;3.40;;
38455;SDS011;24237;50.106;20.014;2023-06-01T12:32:11;10.57;;;3.20;;
38455;SDS011;24237;50.106;20.014;2023-06-01T12:34:38;11.57;;;3.25;;
38455;SDS011;24237;50.106;20.014;2023-06-01T12:37:14;15.07;;;3.58;;
38455;SDS011;24237;50.106;20.014;2023-06-01T12:39:51;14.13;;;3.42;;
38455;SDS011;24237;50.106;20.014;2023-06-01T12:42:34;7.20;;;3.75;;
38455;SDS011;24237;50.106;20.014;2023-06-01T12:45:04;10.65;;;3.53;;
38455;SDS011;24237;50.106;20.014;2023-06-01T12:47:40;10.82;;;3.30;;
38455;SDS011;24237;50.106;20.014;2023-06-01T12:50:07;9.02;;;3.42;;
38455;SDS011;24237;50.106;20.014;2023-06-01T12:52:34;16.17;;;3.63;;
38455;SDS011;24237;50.106;20.014;2023-06-01T12:55:00;11.27;;;3.33;;
38455;SDS011;24237;50.106;20.014;2023-06-01T12:57:28;8.75;;;2.67;;
38455;SDS011;24237;50.106;20.014;2023-06-01T12:59:55;14.50;;;3.53;;
38455;SDS011;24237;50.106;20.014;2023-06-01T13:02:21;13.02;;;2.90;;
38455;SDS011;24237;50.106;20.014;2023-06-01T13:04:48;16.52;;;3.10;;
38455;SDS011;24237;50.106;20.014;2023-06-01T13:07:14;9.57;;;3.28;;
38455;SDS011;24237;50.106;20.014;2023-06-01T13:09:39;10.02;;;2.45;;
38455;SDS011;24237;50.106;20.014;2023-06-01T13:12:05;8.30;;;2.67;;
38455;SDS011;24237;50.106;20.014;2023-06-01T13:14:31;8.40;;;2.50;;
38455;SDS011;24237;50.106;20.014;2023-06-01T13:16:57;13.13;;;3.42;;
38455;SDS011;24237;50.106;20.014;2023-06-01T13:19:23;4.35;;;2.22;;
38455;SDS011;24237;50.106;20.014;2023-06-01T13:21:50;8.70;;;2.60;;
38455;SDS011;24237;50.106;20.014;2023-06-01T13:24:16;10.47;;;2.73;;
38455;SDS011;24237;50.106;20.014;2023-06-01T13:26:42;8.63;;;4.18;;
38455;SDS011;24237;50.106;20.014;2023-06-01T13:29:09;15.38;;;3.08;;
38455;SDS011;24237;50.106;20.014;2023-06-01T13:31:35;13.40;;;3.15;;
38455;SDS011;24237;50.106;20.014;2023-06-01T13:34:02;16.80;;;3.38;;
38455;SDS011;24237;50.106;20.014;2023-06-01T13:36:31;11.45;;;3.38;;
38455;SDS011;24237;50.106;20.014;2023-06-01T13:38:58;5.28;;;2.53;;
38455;SDS011;24237;50.106;20.014;2023-06-01T13:41:23;5.85;;;2.80;;
38455;SDS011;24237;50.106;20.014;2023-06-01T13:43:49;8.65;;;2.38;;
38455;SDS011;24237;50.106;20.014;2023-06-01T13:46:15;8.30;;;3.15;;
38455;SDS011;24237;50.106;20.014;2023-06-01T13:48:41;13.05;;;4.15;;
38455;SDS011;24237;50.106;20.014;2023-06-01T13:51:06;4.28;;;2.60;;
38455;SDS011;24237;50.106;20.014;2023-06-01T13:53:32;5.35;;;2.28;;
38455;SDS011;24237;50.106;20.014;2023-06-01T13:56:01;10.52;;;2.88;;
38455;SDS011;24237;50.106;20.014;2023-06-01T13:58:28;8.68;;;2.55;;
38455;SDS011;24237;50.106;20.014;2023-06-01T14:00:54;6.03;;;2.58;;
38455;SDS011;24237;50.106;20.014;2023-06-01T14:03:19;15.43;;;3.47;;
38455;SDS011;24237;50.106;20.014;2023-06-01T14:05:45;15.68;;;2.78;;
38455;SDS011;24237;50.106;20.014;2023-06-01T14:08:11;8.30;;;3.22;;
38455;SDS011;24237;50.106;20.014;2023-06-01T14:10:36;11.70;;;2.78;;
38455;SDS011;24237;50.106;20.014;2023-06-01T14:13:02;14.15;;;3.97;;
38455;SDS011;24237;50.106;20.014;2023-06-01T14:15:28;16.85;;;3.13;;
38455;SDS011;24237;50.106;20.014;2023-06-01T14:17:53;12.27;;;2.97;;
38455;SDS011;24237;50.106;20.014;2023-06-01T14:22:46;5.03;;;2.35;;
38455;SDS011;24237;50.106;20.014;2023-06-01T14:25:11;6.13;;;2.33;;
38455;SDS011;24237;50.106;20.014;2023-06-01T14:27:38;4.55;;;2.85;;
38455;SDS011;24237;50.106;20.014;2023-06-01T14:30:04;8.10;;;2.60;;
38455;SDS011;24237;50.106;20.014;2023-06-01T14:32:31;9.77;;;3.08;;
38455;SDS011;24237;50.106;20.014;2023-06-01T14:34:56;10.40;;;2.90;;
38455;SDS011;24237;50.106;20.014;2023-06-01T14:37:22;5.90;;;2.70;;
38455;SDS011;24237;50.106;20.014;2023-06-01T14:39:48;9.30;;;2.65;;
38455;SDS011;24237;50.106;20.014;2023-06-01T14:42:14;8.95;;;3.20;;
38455;SDS011;24237;50.106;20.014;2023-06-01T14:44:41;8.30;;;2.90;;
38455;SDS011;24237;50.106;20.014;2023-06-01T14:47:06;16.15;;;3.97;;
38455;SDS011;24237;50.106;20.014;2023-06-01T14:49:32;14.63;;;3.17;;
38455;SDS011;24237;50.106;20.014;2023-06-01T14:51:58;11.13;;;3.00;;
38455;SDS011;24237;50.106;20.014;2023-06-01T14:54:23;11.73;;;3.13;;
38455;SDS011;24237;50.106;20.014;2023-06-01T14:56:49;9.38;;;3.42;;
38455;SDS011;24237;50.106;20.014;2023-06-01T14:59:15;21.50;;;3.47;;
38455;SDS011;24237;50.106;20.014;2023-06-01T15:01:43;19.37;;;3.40;;
38455;SDS011;24237;50.106;20.014;2023-06-01T15:04:09;10.25;;;2.97;;
38455;SDS011;24237;50.106;20.014;2023-06-01T15:06:38;11.13;;;3.03;;
38455;SDS011;24237;50.106;20.014;2023-06-01T15:09:04;14.20;;;3.47;;
38455;SDS011;24237;50.106;20.014;2023-06-01T15:11:29;12.52;;;3.22;;